createdAt,value
2022-10-07T00:02:07.896Z,50.00
2022-10-07T00:04:45.282Z,50.18
2022-10-07T00:07:17.610Z,50.10
2022-10-07T00:09:49.891Z,50.40
2022-10-07T00:12:22.159Z,50.55
2022-10-07T00:14:54.455Z,50.59
2022-10-07T00:17:26.618Z,50.63
2022-10-07T00:19:58.757Z,50.61
2022-10-07T00:22:31.165Z,50.76
2022-10-07T00:25:03.330Z,50.77
2022-10-07T00:27:35.515Z,50.86
2022-10-07T00:30:08.959Z,50.82
2022-10-07T00:32:41.090Z,50.94
2022-10-07T00:35:14.146Z,50.88
2022-10-07T00:37:46.876Z,51.07
2022-10-07T00:40:19.517Z,51.07
2022-10-07T00:42:51.949Z,50.91
2022-10-07T00:45:24.500Z,51.00
2022-10-07T00:47:56.816Z,51.26
2022-10-07T00:50:30.727Z,51.12
2022-10-07T00:53:05.578Z,51.22
2022-10-07T00:55:37.867Z,51.47
2022-10-07T00:58:10.117Z,51.46
2022-10-07T01:00:42.617Z,51.40
2022-10-07T01:03:15.299Z,51.58
2022-10-07T01:05:47.530Z,51.74
2022-10-07T01:08:21.115Z,51.78
2022-10-07T01:11:14.061Z,51.83
2022-10-07T01:13:59.244Z,51.95
2022-10-07T01:16:39.028Z,51.81
2022-10-07T01:19:28.735Z,51.92
2022-10-07T01:22:12.735Z,52.06
2022-10-07T01:24:48.146Z,52.16
2022-10-07T01:27:23.192Z,52.16
2022-10-07T01:29:58.751Z,52.27
2022-10-07T01:32:34.516Z,52.28
2022-10-07T01:35:12.287Z,52.35
2022-10-07T01:37:48.595Z,52.25
2022-10-07T01:40:25.549Z,52.56
2022-10-07T01:42:59.386Z,52.40
2022-10-07T01:45:33.702Z,52.60
2022-10-07T01:48:05.953Z,52.59
2022-10-07T01:50:39.327Z,52.58
2022-10-07T01:53:35.171Z,52.61
2022-10-07T01:56:32.840Z,52.57
2022-10-07T01:59:25.663Z,52.76
2022-10-07T02:02:08.808Z,52.87
2022-10-07T02:04:59.412Z,52.70
2022-10-07T02:07:44.443Z,52.83
2022-10-07T02:10:25.460Z,52.96
2022-10-07T02:13:06.129Z,52.78
2022-10-07T02:15:43.999Z,52.86
2022-10-07T02:18:20.832Z,52.98
2022-10-07T02:20:56.021Z,52.87
2022-10-07T02:23:29.748Z,52.95
2022-10-07T02:26:04.478Z,53.11
2022-10-07T02:28:40.873Z,53.26
2022-10-07T02:31:18.001Z,53.17
2022-10-07T02:33:53.368Z,53.22
2022-10-07T02:36:31.470Z,53.39
2022-10-07T02:39:04.006Z,53.54
2022-10-07T02:41:45.007Z,53.59
2022-10-07T02:44:26.897Z,53.57
2022-10-07T02:47:04.083Z,53.64
2022-10-07T02:49:39.342Z,53.70
2022-10-07T02:52:15.299Z,53.68
2022-10-07T02:54:48.709Z,53.59
2022-10-07T02:57:24.863Z,53.90
2022-10-07T03:00:01.161Z,53.86
2022-10-07T03:02:41.272Z,54.08
2022-10-07T03:05:19.390Z,54.18
2022-10-07T03:07:56.504Z,54.18
2022-10-07T03:10:29.452Z,54.21
2022-10-07T03:13:05.206Z,54.24
2022-10-07T03:15:42.152Z,54.28
2022-10-07T03:18:28.510Z,54.34
2022-10-07T03:21:02.091Z,54.29
2022-10-07T03:23:34.293Z,54.31
2022-10-07T03:26:06.805Z,54.38
2022-10-07T03:28:39.133Z,54.56
2022-10-07T03:31:13.189Z,54.60
2022-10-07T03:33:45.731Z,54.61
2022-10-07T03:36:17.953Z,54.61
2022-10-07T03:38:50.179Z,54.72
2022-10-07T03:41:22.616Z,54.69
2022-10-07T03:43:59.248Z,54.78
2022-10-07T03:46:31.635Z,54.85
2022-10-07T03:49:05.056Z,54.84
2022-10-07T03:51:37.349Z,54.93
2022-10-07T03:54:09.836Z,54.93
2022-10-07T03:56:41.994Z,55.09
2022-10-07T03:59:14.174Z,55.07
2022-10-07T04:01:46.477Z,55.17
2022-10-07T04:04:20.201Z,55.13
2022-10-07T04:06:52.356Z,55.16
2022-10-07T04:09:24.639Z,55.24
2022-10-07T04:11:56.804Z,55.24
2022-10-07T04:14:28.952Z,55.23
2022-10-07T04:17:01.128Z,55.33
2022-10-07T04:19:33.445Z,55.35
2022-10-07T04:22:08.913Z,55.39
2022-10-07T04:24:41.368Z,55.49
2022-10-07T04:27:28.337Z,55.44
2022-10-07T04:30:06.642Z,55.38
2022-10-07T04:32:38.801Z,55.47
2022-10-07T04:35:12.053Z,55.48
2022-10-07T04:37:44.677Z,55.38
2022-10-07T04:40:18.911Z,55.54
2022-10-07T04:43:09.332Z,55.77
2022-10-07T04:45:41.514Z,55.70
2022-10-07T04:48:13.663Z,55.66
2022-10-07T04:50:46.461Z,55.69
2022-10-07T04:53:19.979Z,55.66
2022-10-07T04:55:53.234Z,55.72
2022-10-07T04:58:25.477Z,55.83
2022-10-07T05:00:59.393Z,55.71
2022-10-07T05:03:32.208Z,55.88
2022-10-07T05:06:06.793Z,55.78
2022-10-07T05:08:38.939Z,55.97
2022-10-07T05:11:11.180Z,55.96
2022-10-07T05:13:43.381Z,55.76
2022-10-07T05:16:15.594Z,55.79
2022-10-07T05:18:47.961Z,55.77
2022-10-07T05:21:20.098Z,55.86
2022-10-07T05:23:52.423Z,55.79
2022-10-07T05:26:24.594Z,55.52
2022-10-07T05:28:57.739Z,55.46
2022-10-07T05:31:30.132Z,55.29
2022-10-07T05:34:03.039Z,55.22
2022-10-07T05:36:35.024Z,55.01
2022-10-07T05:39:07.504Z,55.07
2022-10-07T05:41:45.763Z,54.90
2022-10-07T05:44:18.712Z,54.50
2022-10-07T05:46:50.875Z,54.52
2022-10-07T05:49:23.044Z,53.98
2022-10-07T05:51:55.222Z,53.73
2022-10-07T05:54:27.589Z,53.51
2022-10-07T05:57:00.276Z,53.15
2022-10-07T05:59:32.768Z,52.96
2022-10-07T06:02:05.134Z,52.54
2022-10-07T06:04:37.380Z,52.60
2022-10-07T06:07:09.557Z,52.38
2022-10-07T06:09:59.363Z,52.24
2022-10-07T06:12:49.352Z,52.28
2022-10-07T06:15:21.529Z,51.92
2022-10-07T06:17:53.740Z,51.85
2022-10-07T06:20:26.097Z,51.44
2022-10-07T06:22:59.084Z,51.23
2022-10-07T06:25:31.243Z,51.10
2022-10-07T06:28:03.483Z,51.11
2022-10-07T06:30:35.786Z,51.44
2022-10-07T06:33:08.125Z,51.03
2022-10-07T06:35:40.357Z,50.64
2022-10-07T06:38:12.655Z,50.28
2022-10-07T06:40:44.903Z,50.06
2022-10-07T06:43:17.067Z,49.80
2022-10-07T06:45:49.361Z,49.58
2022-10-07T06:48:21.567Z,49.49
2022-10-07T06:50:55.132Z,49.54
2022-10-07T06:53:27.999Z,48.89
2022-10-07T06:56:05.004Z,48.84
2022-10-07T06:58:37.490Z,48.92
2022-10-07T07:01:09.757Z,48.34
2022-10-07T07:03:42.524Z,48.17
2022-10-07T07:06:15.120Z,48.23
2022-10-07T07:08:50.127Z,47.92
2022-10-07T07:11:38.078Z,48.00
2022-10-07T07:14:12.704Z,47.47
2022-10-07T07:16:45.019Z,47.50
2022-10-07T07:19:17.388Z,47.10
2022-10-07T07:21:51.321Z,47.03
2022-10-07T07:24:24.192Z,46.94
2022-10-07T07:26:56.360Z,46.70
2022-10-07T07:29:28.716Z,46.48
2022-10-07T07:32:02.382Z,46.27
2022-10-07T07:34:36.480Z,45.85
2022-10-07T07:37:08.837Z,45.75
2022-10-07T07:39:42.805Z,45.46
2022-10-07T07:42:15.145Z,45.41
2022-10-07T07:44:47.391Z,44.96
2022-10-07T07:47:19.552Z,44.79
2022-10-07T07:49:53.097Z,44.53
2022-10-07T07:52:25.777Z,44.49
2022-10-07T07:54:59.353Z,44.37
2022-10-07T07:57:32.541Z,43.99
2022-10-07T08:00:05.542Z,43.73
2022-10-07T08:02:37.768Z,43.80
2022-10-07T08:05:10.477Z,43.32
2022-10-07T08:07:43.186Z,43.07
2022-10-07T08:10:15.638Z,42.92
2022-10-07T08:12:47.863Z,42.86
2022-10-07T08:15:20.158Z,42.71
2022-10-07T08:17:53.058Z,42.53
2022-10-07T08:20:25.324Z,42.24
2022-10-07T08:22:59.101Z,42.11
2022-10-07T08:25:31.413Z,42.19
2022-10-07T08:28:03.663Z,41.95
2022-10-07T08:30:36.567Z,41.83
2022-10-07T08:33:08.849Z,41.50
2022-10-07T08:35:41.012Z,41.34
2022-10-07T08:38:14.627Z,41.15
2022-10-07T08:40:51.972Z,40.98
2022-10-07T08:43:26.486Z,40.81
2022-10-07T08:45:58.896Z,40.61
2022-10-07T08:48:39.040Z,40.18
2022-10-07T08:51:21.093Z,40.14
2022-10-07T08:53:59.146Z,40.00
2022-10-07T08:56:33.853Z,39.97
2022-10-07T08:59:18.417Z,39.89
2022-10-07T09:02:04.008Z,39.70
2022-10-07T09:04:45.497Z,39.49
2022-10-07T09:07:25.136Z,39.43
2022-10-07T09:10:01.986Z,39.18
2022-10-07T09:12:39.812Z,39.12
2022-10-07T09:15:21.287Z,38.61
2022-10-07T09:17:59.515Z,38.48
2022-10-07T09:20:36.815Z,38.21
2022-10-07T09:23:15.524Z,38.45
2022-10-07T09:25:47.930Z,38.22
2022-10-07T09:28:25.202Z,38.19
2022-10-07T09:30:57.939Z,38.32
2022-10-07T09:33:31.082Z,38.12
2022-10-07T09:36:09.650Z,38.05
2022-10-07T09:38:45.796Z,37.90
2022-10-07T09:41:29.088Z,37.88
2022-10-07T09:44:07.378Z,37.77
2022-10-07T09:46:49.513Z,37.53
2022-10-07T09:49:37.287Z,37.51
2022-10-07T09:52:16.975Z,37.23
2022-10-07T09:54:51.873Z,37.12
2022-10-07T09:57:34.105Z,36.76
2022-10-07T10:00:29.390Z,36.80
2022-10-07T10:03:07.686Z,36.61
2022-10-07T10:05:41.696Z,36.75
2022-10-07T10:08:26.916Z,36.68
2022-10-07T10:11:01.513Z,36.46
2022-10-07T10:13:36.243Z,36.41
2022-10-07T10:16:34.115Z,36.34
2022-10-07T10:19:07.492Z,36.27
2022-10-07T10:21:42.883Z,36.11
2022-10-07T10:24:15.377Z,35.79
2022-10-07T10:27:03.348Z,35.80
2022-10-07T10:29:49.036Z,35.82
2022-10-07T10:32:57.357Z,35.60
2022-10-07T10:35:32.475Z,35.65
2022-10-07T10:38:17.610Z,35.60
2022-10-07T10:40:58.170Z,35.21
2022-10-07T10:43:38.572Z,35.20
2022-10-07T10:46:36.469Z,35.12
2022-10-07T10:49:19.923Z,34.77
2022-10-07T10:52:13.120Z,34.78
2022-10-07T10:55:00.271Z,34.57
2022-10-07T10:57:45.456Z,34.49
2022-10-07T11:00:20.241Z,34.87
2022-10-07T11:03:08.657Z,34.98
2022-10-07T11:05:42.691Z,34.78
2022-10-07T11:08:24.096Z,34.88
2022-10-07T11:11:02.616Z,34.68
2022-10-07T11:13:43.637Z,34.51
2022-10-07T11:16:19.475Z,34.64
2022-10-07T11:18:57.446Z,34.31
2022-10-07T11:21:34.639Z,34.49
2022-10-07T11:24:13.894Z,34.36
2022-10-07T11:26:51.611Z,34.45
2022-10-07T11:29:32.336Z,34.67
2022-10-07T11:32:09.533Z,34.32
2022-10-07T11:34:53.621Z,34.37
2022-10-07T11:37:34.985Z,34.38
2022-10-07T11:40:09.725Z,34.29
2022-10-07T11:42:46.615Z,34.43
2022-10-07T11:45:26.811Z,34.20
2022-10-07T11:48:02.769Z,34.40
2022-10-07T11:50:41.327Z,34.39
2022-10-07T11:53:20.956Z,34.46
2022-10-07T11:56:00.361Z,34.43
2022-10-07T11:58:37.404Z,34.53
2022-10-07T12:01:46.123Z,34.54
2022-10-07T12:04:35.596Z,34.61
2022-10-07T12:07:39.242Z,34.50
2022-10-07T12:10:35.418Z,34.66
2022-10-07T12:13:23.019Z,34.51
2022-10-07T12:15:56.881Z,34.55
2022-10-07T12:18:32.369Z,34.53
2022-10-07T12:21:04.268Z,34.48
2022-10-07T12:23:44.838Z,34.58
2022-10-07T12:26:53.561Z,34.67
2022-10-07T12:29:50.291Z,34.58
2022-10-07T12:32:57.078Z,34.59
2022-10-07T12:35:51.492Z,34.40
2022-10-07T12:38:31.534Z,34.71
2022-10-07T12:41:25.160Z,34.57
2022-10-07T12:44:06.429Z,34.71
2022-10-07T12:46:47.949Z,34.77
2022-10-07T12:49:26.865Z,34.80
2022-10-07T12:52:12.775Z,34.88
2022-10-07T12:54:47.800Z,34.97
2022-10-07T12:57:24.388Z,35.11
2022-10-07T13:00:08.007Z,35.00
2022-10-07T13:03:17.493Z,35.18
2022-10-07T13:06:28.719Z,35.33
2022-10-07T13:09:25.939Z,35.25
2022-10-07T13:12:21.440Z,35.29
2022-10-07T13:15:05.216Z,35.31
2022-10-07T13:17:48.462Z,35.31
2022-10-07T13:20:44.850Z,35.19
2022-10-07T13:23:26.077Z,35.21
2022-10-07T13:26:03.037Z,35.20
2022-10-07T13:28:46.025Z,35.24
2022-10-07T13:31:22.430Z,35.27
2022-10-07T13:33:56.256Z,35.51
2022-10-07T13:36:32.733Z,35.48
2022-10-07T13:39:20.726Z,35.58
2022-10-07T13:41:55.838Z,35.39
2022-10-07T13:44:32.612Z,35.57
2022-10-07T13:47:07.583Z,35.47
2022-10-07T13:49:43.809Z,35.57
2022-10-07T13:52:22.419Z,35.58
2022-10-07T13:54:54.889Z,35.66
2022-10-07T13:57:29.465Z,35.73
2022-10-07T14:00:02.919Z,35.71
2022-10-07T14:02:40.082Z,35.73
2022-10-07T14:05:22.129Z,35.69
2022-10-07T14:07:58.332Z,35.80
2022-10-07T14:10:32.222Z,35.79
2022-10-07T14:13:09.315Z,35.70
2022-10-07T14:15:48.804Z,36.01
2022-10-07T14:18:21.394Z,36.01
2022-10-07T14:20:56.764Z,35.88
2022-10-07T14:23:31.291Z,36.01
2022-10-07T14:26:05.450Z,36.04
2022-10-07T14:28:39.511Z,36.07
2022-10-07T14:31:40.696Z,36.12
2022-10-07T14:34:34.238Z,36.07
2022-10-07T14:37:09.514Z,36.08
2022-10-07T14:39:47.801Z,36.21
2022-10-07T14:42:23.236Z,36.26
2022-10-07T14:44:56.724Z,36.45
2022-10-07T14:47:31.572Z,36.42
2022-10-07T14:50:03.729Z,36.54
2022-10-07T14:52:44.540Z,36.46
2022-10-07T14:55:20.559Z,36.50
2022-10-07T14:57:52.977Z,36.54
2022-10-07T15:00:29.458Z,36.56
2022-10-07T15:03:03.036Z,36.75
2022-10-07T15:05:35.282Z,36.75
2022-10-07T15:08:07.617Z,36.75
2022-10-07T15:10:41.204Z,36.78
2022-10-07T15:13:14.449Z,36.86
2022-10-07T15:15:49.251Z,36.82
2022-10-07T15:18:21.744Z,36.92
2022-10-07T15:20:58.962Z,36.95
2022-10-07T15:23:31.497Z,37.01
2022-10-07T15:26:03.883Z,37.06
2022-10-07T15:28:37.391Z,37.03
2022-10-07T15:31:11.573Z,37.10
2022-10-07T15:33:44.498Z,37.29
2022-10-07T15:36:17.893Z,37.23
2022-10-07T15:38:50.133Z,37.14
2022-10-07T15:41:36.868Z,37.37
2022-10-07T15:44:16.121Z,37.39
2022-10-07T15:46:50.664Z,37.50
2022-10-07T15:49:23.423Z,37.52
2022-10-07T15:51:56.913Z,37.48
2022-10-07T15:54:29.128Z,37.69
2022-10-07T15:57:01.554Z,37.68
2022-10-07T15:59:33.735Z,37.85
2022-10-07T16:02:10.379Z,37.70
2022-10-07T16:04:47.580Z,37.76
2022-10-07T16:07:19.849Z,37.82
2022-10-07T16:09:52.143Z,38.03
2022-10-07T16:12:24.299Z,38.03
2022-10-07T16:14:56.573Z,38.12
2022-10-07T16:17:30.045Z,38.14
2022-10-07T16:20:05.580Z,38.21
2022-10-07T16:22:41.215Z,38.15
2022-10-07T16:25:14.726Z,38.46
2022-10-07T16:28:04.633Z,38.27
2022-10-07T16:30:42.965Z,38.60
2022-10-07T16:33:15.505Z,38.67
2022-10-07T16:35:47.643Z,38.51
2022-10-07T16:38:22.503Z,38.84
2022-10-07T16:40:57.892Z,38.67
2022-10-07T16:43:30.248Z,38.82
2022-10-07T16:46:04.587Z,38.83
2022-10-07T16:48:41.566Z,39.13
2022-10-07T16:51:15.345Z,39.28
2022-10-07T16:53:48.998Z,39.36
2022-10-07T16:56:22.109Z,39.43
2022-10-07T16:59:00.125Z,39.68
2022-10-07T17:01:36.387Z,39.53
2022-10-07T17:04:09.072Z,39.63
2022-10-07T17:06:42.986Z,39.92
2022-10-07T17:09:15.913Z,40.04
2022-10-07T17:11:48.306Z,40.11
2022-10-07T17:14:22.109Z,40.28
2022-10-07T17:16:57.658Z,40.36
2022-10-07T17:19:31.017Z,40.34
2022-10-07T17:22:04.173Z,40.37
2022-10-07T17:24:37.369Z,40.78
2022-10-07T17:27:09.665Z,40.74
2022-10-07T17:29:41.825Z,40.82
2022-10-07T17:32:14.625Z,40.92
2022-10-07T17:34:46.877Z,41.01
2022-10-07T17:37:19.056Z,40.84
2022-10-07T17:39:51.260Z,40.92
2022-10-07T17:42:23.465Z,41.13
2022-10-07T17:44:55.677Z,41.06
2022-10-07T17:47:27.958Z,41.14
2022-10-07T17:50:01.346Z,41.39
2022-10-07T17:52:33.587Z,41.34
2022-10-07T17:55:07.072Z,41.80
2022-10-07T17:57:39.272Z,41.55
2022-10-07T18:00:13.039Z,41.87
2022-10-07T18:02:48.069Z,41.86
2022-10-07T18:05:20.952Z,42.10
2022-10-07T18:07:53.145Z,42.17
2022-10-07T18:10:25.909Z,42.26
2022-10-07T18:13:11.936Z,42.07
2022-10-07T18:15:44.184Z,42.50
2022-10-07T18:18:16.357Z,42.52
2022-10-07T18:20:48.597Z,42.70
2022-10-07T18:23:20.830Z,42.65
2022-10-07T18:25:53.800Z,42.79
2022-10-07T18:28:26.050Z,43.13
2022-10-07T18:30:58.279Z,43.03
2022-10-07T18:33:31.792Z,43.12
2022-10-07T18:36:07.180Z,43.11
2022-10-07T18:38:40.898Z,43.31
2022-10-07T18:41:14.829Z,43.35
2022-10-07T18:43:48.441Z,43.53
2022-10-07T18:46:21.462Z,43.63
2022-10-07T18:48:54.296Z,43.63
2022-10-07T18:51:26.876Z,43.79
2022-10-07T18:53:59.403Z,43.90
2022-10-07T18:56:31.663Z,43.80
2022-10-07T18:59:04.928Z,44.06
2022-10-07T19:01:37.877Z,44.00
2022-10-07T19:04:11.295Z,44.26
2022-10-07T19:06:46.143Z,44.36
2022-10-07T19:09:20.761Z,44.67
2022-10-07T19:11:53.181Z,44.59
2022-10-07T19:14:28.167Z,44.95
2022-10-07T19:17:00.605Z,44.99
2022-10-07T19:19:34.352Z,45.17
2022-10-07T19:22:06.753Z,45.35
2022-10-07T19:24:56.499Z,45.38
2022-10-07T19:27:28.797Z,45.69
2022-10-07T19:30:01.352Z,45.68
2022-10-07T19:32:33.659Z,45.62
2022-10-07T19:35:06.571Z,45.84
2022-10-07T19:37:38.765Z,45.70
2022-10-07T19:40:11.760Z,45.83
2022-10-07T19:42:44.000Z,45.84
2022-10-07T19:45:16.425Z,45.98
2022-10-07T19:47:49.363Z,46.11
2022-10-07T19:50:21.733Z,46.24
2022-10-07T19:52:57.004Z,46.30
2022-10-07T19:55:29.864Z,46.37
2022-10-07T19:58:03.477Z,46.55
2022-10-07T20:00:35.660Z,46.60
2022-10-07T20:03:07.897Z,46.59
2022-10-07T20:05:42.252Z,46.53
2022-10-07T20:08:14.552Z,46.76
2022-10-07T20:10:46.768Z,46.95
2022-10-07T20:13:18.945Z,47.06
2022-10-07T20:15:51.300Z,47.04
2022-10-07T20:18:23.478Z,47.16
2022-10-07T20:21:01.193Z,47.38
2022-10-07T20:23:37.444Z,47.35
2022-10-07T20:26:12.374Z,47.54
2022-10-07T20:28:44.788Z,47.56
2022-10-07T20:31:19.361Z,47.65
2022-10-07T20:33:53.548Z,47.84
2022-10-07T20:36:28.310Z,47.92
2022-10-07T20:39:19.841Z,47.99
2022-10-07T20:42:10.249Z,48.03
2022-10-07T20:44:42.447Z,48.22
2022-10-07T20:47:14.709Z,48.31
2022-10-07T20:49:48.734Z,48.33
2022-10-07T20:52:23.004Z,48.42
2022-10-07T20:54:56.184Z,48.61
2022-10-07T20:57:33.504Z,48.77
2022-10-07T21:00:07.119Z,48.63
2022-10-07T21:02:39.487Z,48.92
2022-10-07T21:05:12.222Z,48.97
2022-10-07T21:07:44.405Z,49.04
2022-10-07T21:10:16.881Z,49.11
2022-10-07T21:12:49.882Z,49.27
2022-10-07T21:15:22.190Z,49.30
2022-10-07T21:17:55.458Z,49.37
2022-10-07T21:20:27.650Z,49.60
2022-10-07T21:22:59.812Z,49.59
2022-10-07T21:25:32.748Z,49.75
2022-10-07T21:28:04.998Z,49.82
2022-10-07T21:30:37.198Z,49.82
2022-10-07T21:33:13.060Z,49.91
2022-10-07T21:35:45.197Z,49.88
2022-10-07T21:38:17.571Z,49.75
2022-10-07T21:40:50.348Z,49.81
2022-10-07T21:43:22.675Z,49.81
2022-10-07T21:45:58.451Z,49.82
2022-10-07T21:48:30.350Z,49.86
2022-10-07T21:51:09.286Z,49.84
2022-10-07T21:53:41.994Z,49.88
2022-10-07T21:56:17.016Z,50.02
2022-10-07T21:58:51.241Z,49.85
2022-10-07T22:01:25.511Z,49.91
2022-10-07T22:03:59.520Z,49.97
2022-10-07T22:06:50.065Z,49.93
2022-10-07T22:09:22.303Z,50.01
2022-10-07T22:11:54.464Z,50.01
2022-10-07T22:14:27.823Z,50.05
2022-10-07T22:17:00.105Z,50.11
2022-10-07T22:19:32.369Z,50.33
2022-10-07T22:22:04.653Z,50.13
2022-10-07T22:24:36.814Z,50.27
2022-10-07T22:27:09.054Z,50.24
2022-10-07T22:29:41.263Z,50.40
2022-10-07T22:32:13.441Z,50.41
2022-10-07T22:35:03.221Z,50.37
2022-10-07T22:37:35.387Z,50.42
2022-10-07T22:40:09.108Z,50.39
2022-10-07T22:42:41.342Z,50.54
2022-10-07T22:45:14.023Z,50.45
2022-10-07T22:47:46.557Z,50.44
2022-10-07T22:50:18.936Z,50.61
2022-10-07T22:52:51.126Z,50.55
2022-10-07T22:55:23.577Z,50.57
2022-10-07T22:57:55.755Z,50.56
2022-10-07T23:00:28.014Z,50.64
2022-10-07T23:03:00.317Z,50.78
2022-10-07T23:05:36.208Z,50.84
2022-10-07T23:08:06.711Z,50.84
2022-10-07T23:10:39.450Z,50.90
2022-10-07T23:13:11.691Z,50.81
2022-10-07T23:15:43.932Z,51.03
2022-10-07T23:18:16.177Z,51.15
2022-10-07T23:20:48.822Z,51.04
2022-10-07T23:23:21.006Z,51.08
2022-10-07T23:25:53.257Z,51.11
2022-10-07T23:28:26.382Z,51.22
2022-10-07T23:30:58.988Z,51.31
2022-10-07T23:33:31.707Z,51.37
2022-10-07T23:36:05.920Z,51.43
2022-10-07T23:38:39.917Z,51.33
2022-10-07T23:41:12.460Z,51.39
2022-10-07T23:43:45.011Z,51.45
2022-10-07T23:46:17.398Z,51.50
2022-10-07T23:48:50.308Z,51.42
2022-10-07T23:51:24.215Z,51.50
2022-10-07T23:53:59.081Z,51.57
2022-10-07T23:56:31.959Z,51.49
2022-10-07T23:59:04.233Z,51.54
